Terminal Aerodrome Forecast
Issued by NWS Tuscon, AZ

Home | Current Version | Previous Version | Text Only | Print | Product List | Glossary On
Versions: 1 2 3 4 5 6 7 8 9 10 11 12 13 14
000
FTUS45 KTWC 211100
TAFTUS
TAF
KTUS 211130Z 2112/2212 14007KT P6SM BKN300
     FM211700 VRB03KT P6SM BKN300
     FM212100 33006KT P6SM BKN300
     FM220300 VRB03KT P6SM BKN300
     FM220800 15006KT P6SM SCT300=

USA.gov is the U.S. government's official web portal to all federal, state and local government web resources and services.